Time;durP1;ratioP1;P1;durP2;ratioP2;P2;SDS_P1;SDS_P2;PMS_P1;PMS_P2;Temp;Humidity;BMP_temperature;BMP_pressure;BME280_temperature;BME280_humidity;BME280_pressure;Samples;Min_cycle;Max_cycle;Signal;HPM_P1;HPM_P2
2022/12/10 00:01:52;;;;;;;158.02;67.75;;;-2.10;99.90;;;;;;5037564;28;20396;-73
2022/12/10 00:04:19;;;;;;;141.15;62.55;;;-1.60;99.90;;;;;;5037729;28;20041;-73
2022/12/10 00:06:45;;;;;;;167.63;69.82;;;-1.90;99.90;;;;;;5020006;28;20049;-73
2022/12/10 00:09:13;;;;;;;172.75;69.97;;;-1.80;99.90;;;;;;5037746;28;20124;-73
2022/12/10 00:11:40;;;;;;;126.63;62.08;;;-1.70;99.90;;;;;;5037789;28;20091;-73
2022/12/10 00:14:09;;;;;;;153.95;64.68;;;-1.70;99.90;;;;;;5037353;28;20056;-72
2022/12/10 00:16:36;;;;;;;141.13;63.65;;;-1.60;99.90;;;;;;5037475;28;20045;-73
2022/12/10 00:19:04;;;;;;;145.30;63.78;;;-1.60;99.90;;;;;;5020149;28;20102;-72
2022/12/10 00:21:32;;;;;;;150.32;62.58;;;-1.60;99.90;;;;;;5037488;28;20037;-72
2022/12/10 00:23:59;;;;;;;153.27;65.03;;;-1.50;99.90;;;;;;5037517;28;20064;-71
2022/12/10 00:26:27;;;;;;;144.80;63.80;;;-1.50;99.90;;;;;;5037242;28;20042;-71
2022/12/10 00:28:55;;;;;;;154.38;64.28;;;-1.50;99.90;;;;;;5036946;28;20071;-72
2022/12/10 00:31:26;;;;;;;142.52;61.40;;;-1.60;99.90;;;;;;5019863;28;20129;-73
2022/12/10 00:33:57;;;;;;;155.63;64.45;;;-1.50;99.90;;;;;;5037248;28;20064;-73
2022/12/10 00:36:34;;;;;;;156.75;64.97;;;-1.50;99.90;;;;;;5037110;28;20112;-72
2022/12/10 00:39:03;;;;;;;140.18;62.58;;;-1.50;99.90;;;;;;5037124;28;20052;-72
2022/12/10 00:41:29;;;;;;;147.15;62.15;;;-1.50;99.90;;;;;;5036784;28;20393;-71
2022/12/10 00:43:55;;;;;;;152.70;62.58;;;-1.50;99.90;;;;;;5019338;28;20087;-73
2022/12/10 00:46:21;;;;;;;132.73;60.95;;;-1.60;99.90;;;;;;5019347;28;20049;-72
2022/12/10 00:48:49;;;;;;;131.68;61.55;;;-1.60;99.90;;;;;;5037051;28;20034;-72
2022/12/10 00:51:21;;;;;;;150.70;62.40;;;-0.60;99.90;;;;;;5036988;28;20085;-72
2022/12/10 00:53:51;;;;;;;142.02;61.08;;;-1.60;99.90;;;;;;5019263;28;20362;-72
2022/12/10 00:56:21;;;;;;;130.70;61.13;;;-1.60;99.90;;;;;;5036066;28;20053;-73
2022/12/10 00:58:48;;;;;;;138.82;61.70;;;-1.70;99.90;;;;;;5037436;28;20072;-72
2022/12/10 01:01:36;;;;;;;131.77;59.45;;;-1.70;99.90;;;;;;5036701;28;20041;-72
2022/12/10 01:04:05;;;;;;;133.45;61.70;;;-1.80;99.90;;;;;;5019114;28;20053;-72
2022/12/10 01:06:36;;;;;;;130.80;59.05;;;-1.80;99.90;;;;;;5036451;28;20076;-72
2022/12/10 01:09:05;;;;;;;135.65;59.70;;;-1.90;99.90;;;;;;5018851;28;20049;-72
2022/12/10 01:11:36;;;;;;;131.55;60.25;;;-2.00;99.90;;;;;;5018708;28;20045;-73
2022/12/10 01:14:03;;;;;;;139.23;60.28;;;-2.00;99.90;;;;;;5036675;28;20095;-72
2022/12/10 01:16:29;;;;;;;123.07;58.55;;;-2.00;99.90;;;;;;5036445;28;20065;-73
2022/12/10 01:18:58;;;;;;;133.60;60.22;;;-2.10;99.90;;;;;;5036231;28;20488;-72
2022/12/10 01:21:26;;;;;;;136.05;60.08;;;-2.10;99.90;;;;;;5036244;28;20037;-72
2022/12/10 01:23:52;;;;;;;140.55;59.67;;;-2.10;99.90;;;;;;5036400;28;20060;-72
2022/12/10 01:26:23;;;;;;;145.75;62.08;;;-2.20;99.90;;;;;;5018368;28;20120;-72
2022/12/10 01:28:50;;;;;;;143.70;62.28;;;-2.20;99.90;;;;;;5036218;28;20046;-73
2022/12/10 01:31:29;;;;;;;145.07;63.72;;;-2.20;99.90;;;;;;5036219;28;20037;-72
2022/12/10 01:33:57;;;;;;;143.15;62.65;;;-2.20;99.90;;;;;;5036060;28;20120;-72
2022/12/10 01:36:26;;;;;;;140.93;64.80;;;-2.20;99.90;;;;;;5035668;28;20045;-72
2022/12/10 01:38:52;;;;;;;149.32;66.22;;;-2.30;99.90;;;;;;5036044;28;20358;-72
2022/12/10 01:41:25;;;;;;;144.38;65.88;;;-2.30;99.90;;;;;;5035645;28;20033;-73
2022/12/10 01:43:58;;;;;;;145.43;64.85;;;-2.30;99.90;;;;;;5035325;28;20450;-73
2022/12/10 01:46:33;;;;;;;159.90;66.85;;;-2.30;99.90;;;;;;5018438;28;20067;-72
2022/12/10 01:49:01;;;;;;;153.85;66.55;;;-2.30;99.90;;;;;;5036065;28;20053;-73
2022/12/10 01:51:30;;;;;;;153.68;67.00;;;-2.40;99.90;;;;;;5035805;28;20343;-73
2022/12/10 01:53:57;;;;;;;155.55;66.47;;;-2.40;99.90;;;;;;5035969;28;20415;-73
2022/12/10 01:56:26;;;;;;;156.75;65.45;;;-2.40;99.90;;;;;;5034829;28;20539;-73
2022/12/10 01:58:55;;;;;;;156.75;64.95;;;-2.40;99.90;;;;;;5035526;28;20049;-73
2022/12/10 02:01:48;;;;;;;150.85;66.53;;;-2.40;99.90;;;;;;5035548;28;20056;-73
2022/12/10 02:04:34;;;;;;;158.25;67.68;;;-2.50;99.90;;;;;;5035844;28;20052;-73
2022/12/10 02:07:22;;;;;;;163.63;68.10;;;-2.50;99.90;;;;;;5035328;28;20160;-73
2022/12/10 02:09:57;;;;;;;171.60;73.40;;;-2.50;99.90;;;;;;5035322;28;20048;-73
2022/12/10 02:12:33;;;;;;;171.70;70.28;;;-2.50;99.90;;;;;;5035294;28;20124;-73
2022/12/10 02:15:06;;;;;;;156.60;68.57;;;-2.50;99.90;;;;;;5035409;28;20037;-73
2022/12/10 02:17:36;;;;;;;;;;;-2.50;99.90;;;;;;5035755;28;20491;-73
2022/12/10 02:20:08;;;;;;;162.07;70.00;;;-2.50;99.90;;;;;;5035542;28;20249;-73
2022/12/10 02:22:40;;;;;;;166.50;69.43;;;-2.50;99.90;;;;;;5035324;28;20046;-72
2022/12/10 02:25:08;;;;;;;155.23;68.00;;;-2.50;99.90;;;;;;5035106;28;20438;-73
2022/12/10 02:28:21;;;;;;;168.35;69.15;;;-2.50;99.90;;;;;;5035179;28;20346;-73
2022/12/10 02:30:48;;;;;;;154.30;66.15;;;-2.60;99.90;;;;;;5035195;28;20034;-72
2022/12/10 02:33:16;;;;;;;174.57;72.75;;;-2.60;99.90;;;;;;5017622;28;20045;-73
2022/12/10 02:35:49;;;;;;;162.63;70.63;;;-2.50;99.90;;;;;;5002027;28;20072;-73
2022/12/10 02:38:24;;;;;;;175.95;73.00;;;-2.60;99.90;;;;;;5034936;28;20056;-72
2022/12/10 02:40:55;;;;;;;166.95;71.18;;;-2.60;99.90;;;;;;5034732;28;20037;-73
2022/12/10 02:43:23;;;;;;;167.10;69.72;;;-2.60;99.90;;;;;;5035030;28;20041;-73
2022/12/10 02:45:50;;;;;;;170.23;72.68;;;-2.60;99.90;;;;;;5034961;28;20124;-73
2022/12/10 02:48:19;;;;;;;167.73;73.40;;;-2.60;99.90;;;;;;5017675;28;20349;-73
2022/12/10 02:50:45;;;;;;;170.88;73.60;;;-2.60;99.90;;;;;;5034332;28;20041;-73
2022/12/10 02:53:11;;;;;;;180.68;72.78;;;-2.60;99.90;;;;;;5034899;28;20036;-72
2022/12/10 02:56:07;;;;;;;171.52;73.07;;;-2.70;99.90;;;;;;5034929;28;20034;-72
2022/12/10 02:58:57;;;;;;;171.00;75.47;;;-2.60;99.90;;;;;;5034956;28;20057;-73
2022/12/10 03:01:41;;;;;;;166.85;73.35;;;-2.60;99.90;;;;;;5034869;28;20453;-72
2022/12/10 03:04:18;;;;;;;177.30;74.28;;;-2.70;99.90;;;;;;5034841;28;20045;-73
2022/12/10 03:07:01;;;;;;;177.98;76.05;;;-2.70;99.90;;;;;;5034571;28;20041;-73
2022/12/10 03:09:34;;;;;;;158.05;69.35;;;-2.50;99.90;;;;;;5038045;28;20037;-72
2022/12/10 03:12:05;;;;;;;182.77;76.65;;;-2.70;99.90;;;;;;5038808;28;20103;-72
2022/12/10 03:14:33;;;;;;;179.57;75.88;;;-2.70;99.90;;;;;;5021706;28;20076;-72
2022/12/10 03:17:01;;;;;;;180.85;76.20;;;-2.70;99.90;;;;;;5021456;28;20088;-72
2022/12/10 03:19:50;;;;;;;185.13;77.53;;;-2.60;99.90;;;;;;5038081;28;20091;-73
2022/12/10 03:22:19;;;;;;;177.57;76.63;;;-2.60;99.90;;;;;;5018753;28;20045;-72
2022/12/10 03:24:48;;;;;;;192.73;78.35;;;-2.70;99.90;;;;;;5018615;28;20041;-74
2022/12/10 03:27:16;;;;;;;179.30;75.10;;;-2.70;99.90;;;;;;5018525;28;20041;-73
2022/12/10 03:29:54;;;;;;;175.18;73.88;;;-2.70;99.90;;;;;;5018693;28;20054;-73
2022/12/10 03:32:23;;;;;;;179.90;74.97;;;-2.70;99.90;;;;;;5018719;28;20073;-73
2022/12/10 03:34:53;;;;;;;173.30;73.60;;;-2.70;99.90;;;;;;5023862;28;20163;-73
2022/12/10 03:37:19;;;;;;;176.68;75.57;;;-2.70;99.90;;;;;;5020828;28;20041;-73
2022/12/10 03:39:45;;;;;;;179.48;75.28;;;-2.70;99.90;;;;;;5021868;28;20049;-73
2022/12/10 03:42:12;;;;;;;173.40;74.97;;;-2.70;99.90;;;;;;5020879;28;20457;-73
2022/12/10 03:44:40;;;;;;;172.05;73.70;;;-2.80;99.90;;;;;;5038273;28;20064;-73
2022/12/10 03:47:08;;;;;;;174.55;73.13;;;-2.80;99.90;;;;;;5038404;28;20056;-73
2022/12/10 03:49:34;;;;;;;163.15;72.38;;;-2.80;99.90;;;;;;5020280;28;20041;-73
2022/12/10 03:52:00;;;;;;;180.45;75.07;;;-2.90;99.90;;;;;;5038037;28;20040;-73
2022/12/10 03:54:26;;;;;;;177.55;75.07;;;-2.90;99.90;;;;;;5020436;28;20041;-73
2022/12/10 03:56:51;;;;;;;178.82;76.78;;;-2.90;99.90;;;;;;5037668;28;20162;-73
2022/12/10 03:59:17;;;;;;;174.13;74.18;;;-2.90;99.90;;;;;;5020335;28;20045;-73
2022/12/10 04:01:43;;;;;;;178.15;75.75;;;-2.90;99.90;;;;;;5037664;28;20052;-73
2022/12/10 04:04:09;;;;;;;171.80;75.38;;;-3.00;99.90;;;;;;5020087;28;20029;-73
2022/12/10 04:06:38;;;;;;;177.38;77.03;;;-3.00;99.90;;;;;;5037665;28;20033;-73
2022/12/10 04:09:03;;;;;;;189.35;79.97;;;-3.00;99.90;;;;;;5037927;28;20433;-73
2022/12/10 04:11:29;;;;;;;164.80;71.85;;;-3.00;99.90;;;;;;5020308;28;20037;-74
2022/12/10 04:16:39;;;;;;;181.63;74.45;;;-3.00;99.90;;;;;;5037512;28;20045;-73
2022/12/10 04:19:08;;;;;;;182.35;74.55;;;-3.00;99.90;;;;;;5037203;28;20120;-73
2022/12/10 04:27:16;;;;;;;184.75;76.75;;;-2.00;99.90;;;;;;5037249;28;20048;-74
2022/12/10 04:29:42;;;;;;;170.90;73.53;;;-3.10;99.90;;;;;;5020165;28;20043;-74
2022/12/10 04:32:08;;;;;;;176.05;76.90;;;-3.10;99.90;;;;;;5037379;28;20043;-74
2022/12/10 04:34:34;;;;;;;165.60;73.97;;;-3.10;99.90;;;;;;5037058;28;20111;-73
2022/12/10 04:37:00;;;;;;;161.40;71.60;;;-3.10;99.90;;;;;;5037301;28;20465;-73
2022/12/10 04:39:25;;;;;;;161.13;74.38;;;-3.10;99.90;;;;;;5037138;28;20046;-72
2022/12/10 04:41:54;;;;;;;183.13;77.38;;;-3.20;99.90;;;;;;5020030;28;20041;-73
2022/12/10 04:44:19;;;;;;;188.60;78.28;;;-3.20;99.90;;;;;;5037440;28;20408;-72
2022/12/10 04:46:46;;;;;;;177.55;77.20;;;-3.20;99.90;;;;;;5036799;28;20465;-73
2022/12/10 04:49:12;;;;;;;187.90;77.15;;;-3.20;99.90;;;;;;5019373;28;20053;-73
2022/12/10 04:51:38;;;;;;;171.98;73.25;;;-3.20;99.90;;;;;;5037609;28;20041;-73
2022/12/10 04:54:04;;;;;;;183.48;77.57;;;-3.20;99.90;;;;;;5002108;28;20053;-73
2022/12/10 04:56:30;;;;;;;168.48;75.32;;;-3.30;99.90;;;;;;5019186;28;20053;-72
2022/12/10 04:58:57;;;;;;;188.60;79.05;;;-2.70;99.90;;;;;;5036688;28;20042;-73
2022/12/10 05:01:25;;;;;;;154.48;71.95;;;-3.20;99.90;;;;;;5036935;28;20037;-73
2022/12/10 05:03:51;;;;;;;176.43;75.00;;;-3.30;99.90;;;;;;5036462;28;20465;-73
2022/12/10 05:06:18;;;;;;;193.35;79.97;;;-3.20;99.90;;;;;;5036521;28;20038;-73
2022/12/10 05:08:44;;;;;;;189.68;80.70;;;-3.30;99.90;;;;;;5036568;28;20052;-73
2022/12/10 05:11:13;;;;;;;199.35;81.18;;;-3.30;99.90;;;;;;5036967;28;20037;-73
2022/12/10 05:13:39;;;;;;;178.10;77.53;;;-3.20;99.90;;;;;;5036527;28;20029;-73
2022/12/10 05:16:07;;;;;;;184.93;77.05;;;-3.20;99.90;;;;;;5037230;28;20042;-72
2022/12/10 05:18:33;;;;;;;181.63;77.40;;;-3.30;99.90;;;;;;5035773;28;20377;-73
2022/12/10 05:21:04;;;;;;;182.93;79.82;;;-3.30;99.90;;;;;;5036680;28;20374;-73
2022/12/10 05:23:30;;;;;;;184.88;79.05;;;-2.70;99.90;;;;;;5036342;28;20103;-73
2022/12/10 05:26:07;;;;;;;182.82;77.85;;;-3.30;99.90;;;;;;5036137;28;20042;-73
2022/12/10 05:28:38;;;;;;;181.75;77.22;;;-3.30;99.90;;;;;;5036297;28;20417;-73
2022/12/10 05:31:17;;;;;;;180.00;77.90;;;-3.30;99.90;;;;;;5035772;28;20049;-73
2022/12/10 05:33:43;;;;;;;184.48;79.97;;;-3.30;99.90;;;;;;5018235;28;20038;-73
2022/12/10 05:36:11;;;;;;;193.57;81.97;;;-3.30;99.90;;;;;;5036277;28;20060;-73
2022/12/10 05:38:37;;;;;;;193.38;79.55;;;-3.30;99.90;;;;;;5035926;28;20103;-73
2022/12/10 05:41:05;;;;;;;183.68;80.53;;;-3.30;99.90;;;;;;5018738;28;20051;-72
2022/12/10 05:43:31;;;;;;;184.75;79.80;;;-3.40;99.90;;;;;;5034927;28;20087;-74
2022/12/10 05:46:10;;;;;;;188.52;79.47;;;-3.30;99.90;;;;;;5035000;28;20099;-75
2022/12/10 05:48:36;;;;;;;178.20;78.45;;;-3.30;99.90;;;;;;5032863;28;20543;-76
2022/12/10 05:51:06;;;;;;;183.05;82.10;;;-3.30;99.90;;;;;;5035442;28;20041;-73
2022/12/10 05:53:32;;;;;;;184.52;77.40;;;-3.30;99.90;;;;;;5035492;28;20038;-73
2022/12/10 05:56:07;;;;;;;189.68;80.53;;;-3.30;99.90;;;;;;5032900;28;20044;-73
2022/12/10 05:58:33;;;;;;;195.20;83.10;;;-3.30;99.90;;;;;;5035324;28;20049;-73
2022/12/10 06:00:59;;;;;;;208.32;84.05;;;-3.30;99.90;;;;;;5033656;28;20442;-73
2022/12/10 06:03:27;;;;;;;207.57;86.47;;;-3.30;99.90;;;;;;5032609;28;20091;-74
2022/12/10 06:05:53;;;;;;;198.60;82.70;;;-3.20;99.90;;;;;;5011605;28;20099;-74
2022/12/10 06:08:19;;;;;;;204.65;86.10;;;-3.10;99.90;;;;;;4988924;28;20046;-74
2022/12/10 06:10:44;;;;;;;212.25;86.32;;;-2.60;99.90;;;;;;4997393;28;20045;-74
2022/12/10 06:13:10;;;;;;;222.02;88.78;;;-3.10;99.90;;;;;;5015368;28;20465;-74
2022/12/10 06:15:39;;;;;;;211.85;83.85;;;-2.40;99.90;;;;;;5014971;28;20042;-74
2022/12/10 06:18:05;;;;;;;217.02;85.53;;;-3.00;99.90;;;;;;4999704;28;20053;-73
2022/12/10 06:20:31;;;;;;;220.80;87.22;;;-2.90;99.90;;;;;;5017120;28;20131;-72
2022/12/10 06:22:57;;;;;;;222.13;88.32;;;-2.80;99.90;;;;;;5015536;28;20042;-72
2022/12/10 06:25:22;;;;;;;222.15;90.10;;;-2.80;99.90;;;;;;5015277;28;20050;-73
2022/12/10 06:27:48;;;;;;;238.95;91.75;;;-2.70;99.90;;;;;;5023440;28;20049;-72
2022/12/10 06:30:13;;;;;;;224.38;90.68;;;-2.70;99.90;;;;;;5015305;28;20042;-72
2022/12/10 06:32:39;;;;;;;239.23;87.93;;;-2.60;99.90;;;;;;5015343;28;20095;-73
2022/12/10 06:35:05;;;;;;;224.25;88.55;;;-2.50;99.90;;;;;;5016136;28;20033;-73
2022/12/10 06:37:31;;;;;;;243.93;91.95;;;-2.50;99.90;;;;;;5015302;28;20121;-73
2022/12/10 06:39:57;;;;;;;219.25;88.20;;;-2.50;99.90;;;;;;4997631;28;20104;-73
2022/12/10 06:42:22;;;;;;;244.43;92.70;;;-2.40;99.90;;;;;;5021545;28;20446;-72
2022/12/10 06:44:48;;;;;;;250.13;93.53;;;-2.40;99.90;;;;;;5014909;28;20044;-72
2022/12/10 06:47:14;;;;;;;215.18;84.10;;;-2.40;99.90;;;;;;4997596;28;20379;-73
2022/12/10 06:49:40;;;;;;;222.80;88.15;;;-2.40;99.90;;;;;;5014914;28;20081;-73
2022/12/10 06:52:06;;;;;;;249.73;93.22;;;-1.60;99.90;;;;;;5015200;28;20050;-73
2022/12/10 06:54:32;;;;;;;236.68;89.22;;;-2.30;99.90;;;;;;5015052;28;20029;-72
2022/12/10 06:56:58;;;;;;;246.60;92.70;;;-2.30;99.90;;;;;;5028194;28;20060;-73
2022/12/10 06:59:24;;;;;;;229.80;90.43;;;-2.20;99.90;;;;;;5017157;28;20446;-73
2022/12/10 07:01:50;;;;;;;238.07;89.78;;;-2.20;99.90;;;;;;5015034;28;20350;-73
2022/12/10 07:04:18;;;;;;;255.07;93.15;;;-2.20;99.90;;;;;;5033363;28;20052;-73
2022/12/10 07:06:44;;;;;;;229.02;90.70;;;-2.10;99.90;;;;;;5016831;28;20122;-73
2022/12/10 07:09:10;;;;;;;265.98;95.03;;;-2.10;99.90;;;;;;5016184;28;20120;-72
2022/12/10 07:11:36;;;;;;;242.70;88.90;;;-2.10;99.90;;;;;;5014829;28;20050;-72
2022/12/10 07:14:02;;;;;;;238.43;88.38;;;-1.20;99.90;;;;;;5014712;28;20088;-72
2022/12/10 07:16:30;;;;;;;252.68;92.22;;;-2.10;99.90;;;;;;5014891;28;20057;-72
2022/12/10 07:18:58;;;;;;;261.23;93.30;;;-2.00;99.90;;;;;;5014925;28;20046;-72
2022/12/10 07:21:34;;;;;;;261.92;89.32;;;-2.00;99.90;;;;;;5017612;28;20042;-72
2022/12/10 07:24:05;;;;;;;260.73;93.57;;;-2.00;99.90;;;;;;5028770;28;20045;-72
2022/12/10 07:26:34;;;;;;;282.30;96.70;;;-2.00;99.90;;;;;;5014784;28;20358;-73
2022/12/10 07:29:01;;;;;;;261.45;90.95;;;-2.00;99.90;;;;;;5014785;28;20064;-72
2022/12/10 07:31:27;;;;;;;245.70;90.07;;;-1.90;99.90;;;;;;5014523;28;20453;-72
2022/12/10 07:33:54;;;;;;;259.45;91.53;;;-2.00;99.90;;;;;;4997235;28;20053;-72
2022/12/10 07:36:22;;;;;;;264.70;89.85;;;-1.20;99.90;;;;;;5014837;28;20046;-72
2022/12/10 07:38:48;;;;;;;242.20;87.60;;;-2.00;99.90;;;;;;5015952;28;20064;-72
2022/12/10 07:41:14;;;;;;;248.98;88.38;;;-1.90;99.90;;;;;;5019892;28;20037;-72
2022/12/10 07:43:42;;;;;;;264.17;87.70;;;-1.90;99.90;;;;;;5017858;28;20029;-73
2022/12/10 07:46:14;;;;;;;245.57;87.95;;;-1.90;99.90;;;;;;5013476;28;20461;-71
2022/12/10 07:48:43;;;;;;;258.20;90.43;;;-1.90;99.90;;;;;;5016719;28;20037;-70
2022/12/10 07:51:09;;;;;;;231.65;86.15;;;-1.90;99.90;;;;;;5013863;28;20049;-71
2022/12/10 07:53:35;;;;;;;254.82;90.55;;;-1.90;99.90;;;;;;5020963;28;20045;-72
2022/12/10 07:56:01;;;;;;;240.15;87.15;;;-1.90;99.90;;;;;;5016449;28;20037;-69
2022/12/10 07:58:27;;;;;;;236.45;85.30;;;-1.80;99.90;;;;;;5000309;28;20380;-71
2022/12/10 08:00:52;;;;;;;220.82;87.03;;;-1.90;99.90;;;;;;5017348;28;20049;-71
2022/12/10 08:03:18;;;;;;;225.82;86.53;;;-1.90;99.90;;;;;;5017582;28;20050;-72
2022/12/10 08:05:44;;;;;;;237.60;88.43;;;-1.80;99.90;;;;;;5030571;28;20331;-70
2022/12/10 08:08:10;;;;;;;235.32;91.18;;;-1.80;99.90;;;;;;5018585;28;20068;-71
2022/12/10 08:10:37;;;;;;;220.32;85.80;;;-1.80;99.90;;;;;;5017420;28;20030;-71
2022/12/10 08:13:03;;;;;;;228.02;88.30;;;-1.80;99.90;;;;;;5017562;28;20113;-69
2022/12/10 08:15:29;;;;;;;236.27;88.32;;;-1.80;99.90;;;;;;5016316;28;20041;-69
2022/12/10 08:17:55;;;;;;;236.63;88.15;;;-1.80;99.90;;;;;;5030238;28;20052;-70
2022/12/10 08:20:24;;;;;;;218.18;87.00;;;-1.60;99.90;;;;;;5036910;28;20099;-70
2022/12/10 08:22:50;;;;;;;233.15;88.40;;;-1.70;99.90;;;;;;5012563;28;20136;-70
2022/12/10 08:25:16;;;;;;;233.88;89.55;;;-1.70;99.90;;;;;;5017311;28;20534;-71
2022/12/10 08:27:42;;;;;;;202.55;83.30;;;-1.70;99.90;;;;;;5017371;28;20034;-71
2022/12/10 08:30:08;;;;;;;220.18;85.38;;;-1.70;99.90;;;;;;5017365;28;20472;-70
2022/12/10 08:32:34;;;;;;;239.10;88.28;;;-1.70;99.90;;;;;;5017314;28;20038;-70
2022/12/10 08:35:00;;;;;;;239.98;87.63;;;-1.60;99.90;;;;;;5017139;28;20064;-69
2022/12/10 08:37:25;;;;;;;229.30;91.60;;;-1.60;99.90;;;;;;5021922;28;20389;-70
2022/12/10 08:39:51;;;;;;;244.15;88.55;;;-1.60;99.90;;;;;;5029156;28;20050;-70
2022/12/10 08:42:22;;;;;;;243.32;89.18;;;-1.60;99.90;;;;;;5016707;28;20038;-70
2022/12/10 08:44:51;;;;;;;237.95;87.72;;;-1.60;99.90;;;;;;5024342;28;20060;-70
2022/12/10 08:47:19;;;;;;;236.35;89.60;;;-1.60;99.90;;;;;;5036735;28;20120;-71
2022/12/10 08:49:45;;;;;;;237.15;86.80;;;-1.50;99.90;;;;;;5036688;28;20098;-70
2022/12/10 08:52:10;;;;;;;234.48;86.13;;;-1.50;99.90;;;;;;5017117;28;20748;-70
2022/12/10 08:54:36;;;;;;;241.80;87.15;;;-1.50;99.90;;;;;;5035301;28;20044;-71
2022/12/10 08:57:02;;;;;;;238.35;86.95;;;-1.50;99.90;;;;;;5022740;28;20137;-71
2022/12/10 08:59:27;;;;;;;218.13;84.75;;;-1.40;99.90;;;;;;5016934;28;20056;-72
2022/12/10 09:01:53;;;;;;;216.98;85.13;;;-1.40;99.90;;;;;;5016700;28;20454;-72
2022/12/10 09:04:19;;;;;;;263.88;91.57;;;-1.40;99.90;;;;;;5024276;28;20059;-71
2022/12/10 09:06:44;;;;;;;228.02;87.95;;;-1.40;99.90;;;;;;5021664;28;20057;-72
2022/12/10 09:09:10;;;;;;;220.30;85.90;;;-1.40;99.90;;;;;;5018202;28;20050;-72
2022/12/10 09:11:35;;;;;;;258.05;93.28;;;-1.30;99.90;;;;;;5022069;28;20453;-71
2022/12/10 09:14:01;;;;;;;200.40;81.38;;;-1.30;99.90;;;;;;5015202;28;20108;-71
2022/12/10 09:16:31;;;;;;;223.93;85.07;;;-1.20;99.90;;;;;;5016415;28;20034;-71
2022/12/10 09:18:57;;;;;;;215.45;84.72;;;-1.20;99.90;;;;;;5016017;28;20532;-71
2022/12/10 09:21:26;;;;;;;225.35;86.47;;;-0.60;99.90;;;;;;5016148;28;20057;-71
2022/12/10 09:23:52;;;;;;;242.57;87.40;;;-0.10;99.90;;;;;;5017264;28;20045;-72
2022/12/10 09:26:19;;;;;;;234.73;85.40;;;-1.20;99.90;;;;;;5020662;28;20125;-71
2022/12/10 09:28:49;;;;;;;199.90;81.65;;;-1.10;99.90;;;;;;5019072;28;20069;-71
2022/12/10 09:31:17;;;;;;;234.80;88.50;;;-1.10;99.90;;;;;;5016323;28;20092;-72
2022/12/10 09:33:43;;;;;;;223.90;86.07;;;-1.10;99.90;;;;;;5007857;28;20128;-71
2022/12/10 09:36:11;;;;;;;210.10;83.38;;;-1.10;99.90;;;;;;5032920;28;20450;-72
2022/12/10 09:38:39;;;;;;;243.18;88.85;;;-1.10;99.90;;;;;;5016072;28;20056;-71
2022/12/10 09:41:23;;;;;;;215.95;83.72;;;-1.10;99.90;;;;;;5029000;28;20128;-71
2022/12/10 09:44:00;;;;;;;;;;;-1.00;99.90;;;;;;5016350;28;20060;-71
2022/12/10 09:46:41;;;;;;;231.48;84.78;;;-1.00;99.90;;;;;;5015891;28;19932;-71
2022/12/10 09:49:38;;;;;;;226.75;82.22;;;-1.00;99.90;;;;;;5016105;28;20339;-72
2022/12/10 09:52:06;;;;;;;221.52;83.22;;;-0.90;99.90;;;;;;4987799;28;20103;-72
2022/12/10 09:54:32;;;;;;;194.95;78.22;;;-0.90;99.90;;;;;;5020876;28;20037;-72
2022/12/10 09:56:59;;;;;;;214.73;82.13;;;-0.80;99.90;;;;;;4984673;28;20085;-72
2022/12/10 09:59:27;;;;;;;227.63;83.00;;;-0.80;99.90;;;;;;4995931;28;20078;-71
2022/12/10 10:02:22;;;;;;;188.75;78.93;;;-0.70;99.90;;;;;;4996012;28;20339;-71
2022/12/10 10:04:54;;;;;;;245.07;87.78;;;-0.70;99.90;;;;;;5007443;28;20520;-72
2022/12/10 10:07:46;;;;;;;234.48;84.32;;;-0.70;99.90;;;;;;4996490;28;20053;-71
2022/12/10 10:10:28;;;;;;;234.23;88.32;;;-0.70;99.90;;;;;;5006499;28;20383;-71
2022/12/10 10:12:58;;;;;;;214.32;81.00;;;-0.80;99.90;;;;;;4995977;28;20046;-71
2022/12/10 10:15:30;;;;;;;231.27;86.57;;;-0.80;99.90;;;;;;4995465;28;20049;-70
2022/12/10 10:18:01;;;;;;;231.40;87.57;;;-0.80;99.90;;;;;;4995128;28;20042;-71
2022/12/10 10:20:27;;;;;;;246.57;89.90;;;-0.70;99.90;;;;;;4995766;28;20050;-71
2022/12/10 10:22:56;;;;;;;218.82;86.40;;;-0.80;99.90;;;;;;4995925;28;20097;-71
2022/12/10 10:25:21;;;;;;;243.00;100.95;;;-0.70;99.90;;;;;;5002709;28;20111;-72
2022/12/10 10:27:47;;;;;;;250.00;96.28;;;-0.70;99.90;;;;;;5010616;28;20335;-71
2022/12/10 10:30:19;;;;;;;244.55;95.72;;;-0.80;99.90;;;;;;4995951;28;20038;-71
2022/12/10 10:32:56;;;;;;;280.83;100.75;;;-0.70;99.90;;;;;;4995552;28;20047;-71
2022/12/10 10:35:29;;;;;;;199.35;83.55;;;-0.70;99.90;;;;;;4995035;28;20129;-71
2022/12/10 10:38:06;;;;;;;223.77;88.47;;;-0.70;99.90;;;;;;4995683;28;20137;-72
2022/12/10 10:40:40;;;;;;;233.25;91.88;;;-0.60;99.90;;;;;;4997165;28;20041;-72
2022/12/10 10:43:12;;;;;;;254.55;101.28;;;-0.60;99.90;;;;;;4994512;28;20042;-71
2022/12/10 10:45:49;;;;;;;262.05;95.90;;;-0.50;99.90;;;;;;4995460;28;20057;-72
2022/12/10 10:48:16;;;;;;;228.40;94.10;;;-0.50;99.90;;;;;;4995274;28;20089;-71
2022/12/10 10:50:48;;;;;;;240.63;89.35;;;-0.50;99.90;;;;;;4995271;28;20400;-72
2022/12/10 10:53:27;;;;;;;384.58;105.35;;;-0.50;99.90;;;;;;4995285;28;20050;-72
2022/12/10 10:55:56;;;;;;;226.05;86.40;;;-0.40;99.90;;;;;;4995344;28;20050;-72
2022/12/10 10:58:26;;;;;;;214.77;89.65;;;-0.40;99.90;;;;;;5013535;28;20046;-71
2022/12/10 11:00:58;;;;;;;233.32;92.32;;;-0.40;99.90;;;;;;5014434;28;20060;-72
2022/12/10 11:03:26;;;;;;;230.65;87.97;;;-0.30;99.90;;;;;;5014634;28;20113;-72
2022/12/10 11:05:53;;;;;;;203.48;87.70;;;-0.30;99.90;;;;;;5027026;28;20050;-71
2022/12/10 11:08:20;;;;;;;221.75;86.65;;;-0.20;99.90;;;;;;5017338;28;20033;-71
2022/12/10 11:10:51;;;;;;;219.35;86.22;;;-0.20;99.90;;;;;;5022273;28;20111;-71
2022/12/10 11:13:26;;;;;;;233.02;87.15;;;-0.10;99.90;;;;;;5034285;28;20470;-71
2022/12/10 11:16:22;;;;;;;188.30;80.15;;;-0.10;99.90;;;;;;5034470;28;20056;-70
2022/12/10 11:19:02;;;;;;;303.50;149.00;;;0.00;99.90;;;;;;5034719;28;20045;-70
2022/12/10 11:21:32;;;;;;;223.73;88.97;;;0.00;99.90;;;;;;5034480;28;20392;-71
2022/12/10 11:23:59;;;;;;;204.38;93.43;;;0.50;99.90;;;;;;5034321;28;20045;-70
2022/12/10 11:26:25;;;;;;;200.95;84.47;;;0.00;99.90;;;;;;5013928;28;20050;-71
2022/12/10 11:29:24;;;;;;;218.00;86.78;;;0.00;99.90;;;;;;5034048;28;20037;-70
2022/12/10 11:32:01;;;;;;;223.63;81.88;;;0.00;99.90;;;;;;5018703;28;20045;-70
2022/12/10 11:34:35;;;;;;;179.30;74.57;;;0.00;99.90;;;;;;5038438;28;20038;-71
2022/12/10 11:37:17;;;;;;;208.20;79.72;;;0.00;99.90;;;;;;5039857;28;20475;-70
2022/12/10 11:39:53;;;;;;;192.82;77.60;;;0.00;99.90;;;;;;5039418;28;20052;-71
2022/12/10 11:42:31;;;;;;;185.52;76.60;;;0.10;99.90;;;;;;5038043;28;20049;-71
2022/12/10 11:45:21;;;;;;;187.40;73.15;;;0.10;99.90;;;;;;5037901;28;20072;-71
2022/12/10 11:47:57;;;;;;;167.63;70.82;;;0.10;99.90;;;;;;5020314;28;20119;-72
2022/12/10 11:50:34;;;;;;;176.80;74.90;;;0.10;99.90;;;;;;5038078;28;20084;-71
2022/12/10 11:53:27;;;;;;;166.18;71.07;;;0.10;99.90;;;;;;5004099;28;20053;-71
2022/12/10 11:56:12;;;;;;;193.40;76.25;;;0.20;99.90;;;;;;5017940;28;20117;-71
2022/12/10 11:58:58;;;;;;;171.07;70.32;;;0.20;99.90;;;;;;5018036;28;20068;-72
2022/12/10 12:01:49;;;;;;;185.45;76.05;;;0.20;99.90;;;;;;5017893;28;20113;-71
2022/12/10 12:04:29;;;;;;;169.43;68.50;;;0.20;99.90;;;;;;5024838;28;20129;-71
2022/12/10 12:07:17;;;;;;;168.48;70.13;;;0.30;99.90;;;;;;5021740;28;20037;-71
2022/12/10 12:10:17;;;;;;;156.23;71.25;;;0.20;99.90;;;;;;5019745;28;20046;-71
2022/12/10 12:13:04;;;;;;;197.38;75.60;;;0.20;99.90;;;;;;5027308;28;20413;-72
2022/12/10 12:15:33;;;;;;;185.77;73.30;;;0.20;99.90;;;;;;5017660;28;20042;-71
2022/12/10 12:18:12;;;;;;;165.00;70.78;;;0.20;99.90;;;;;;5017629;28;20050;-71
2022/12/10 12:20:49;;;;;;;193.40;72.88;;;-0.50;99.90;;;;;;5017359;28;20111;-71
2022/12/10 12:23:26;;;;;;;163.75;72.07;;;0.20;99.90;;;;;;5017367;28;20077;-71
2022/12/10 12:25:56;;;;;;;162.18;69.63;;;0.20;99.90;;;;;;5025319;28;20050;-72
2022/12/10 12:28:46;;;;;;;193.43;72.55;;;0.20;99.90;;;;;;5017419;28;20069;-71
2022/12/10 12:31:22;;;;;;;187.50;70.38;;;0.20;99.90;;;;;;5017361;28;20458;-73
2022/12/10 12:33:51;;;;;;;184.52;72.78;;;0.20;99.90;;;;;;5016059;28;20050;-72
2022/12/10 12:36:37;;;;;;;176.40;75.55;;;0.20;99.90;;;;;;5017336;28;20124;-72
2022/12/10 12:39:21;;;;;;;202.13;79.55;;;0.20;99.90;;;;;;5029345;28;20045;-72
2022/12/10 12:41:47;;;;;;;195.85;73.78;;;0.30;99.90;;;;;;5016047;28;20343;-73
2022/12/10 12:44:30;;;;;;;210.90;77.63;;;0.30;99.90;;;;;;5036736;28;20060;-73